createdAt,value
2022-11-10T00:01:55.982Z,100572.85
2022-11-10T00:04:47.315Z,100571.59
2022-11-10T00:07:39.321Z,100574.14
2022-11-10T00:10:31.228Z,100578.38
2022-11-10T00:13:22.669Z,100581.02
2022-11-10T00:16:31.097Z,100585.08
2022-11-10T00:19:22.282Z,100583.45
2022-11-10T00:22:13.166Z,100585.56
2022-11-10T00:25:04.325Z,100588.09
2022-11-10T00:27:55.843Z,100588.33
2022-11-10T00:30:47.028Z,100579.31
2022-11-10T00:33:39.530Z,100592.98
2022-11-10T00:36:30.323Z,100597.93
2022-11-10T00:39:21.267Z,100603.77
2022-11-10T00:42:14.707Z,100606.88
2022-11-10T00:45:05.616Z,100604.52
2022-11-10T00:47:57.788Z,100609.80
2022-11-10T00:50:49.960Z,100609.23
2022-11-10T00:53:40.757Z,100612.11
2022-11-10T00:56:31.572Z,100610.23
2022-11-10T00:59:23.759Z,100610.52
2022-11-10T01:02:14.857Z,100608.58
2022-11-10T01:05:07.838Z,100613.17
2022-11-10T01:08:00.717Z,100615.08
2022-11-10T01:10:51.443Z,100616.17
2022-11-10T01:13:44.436Z,100618.06
2022-11-10T01:16:35.770Z,100614.91
2022-11-10T01:19:26.742Z,100618.67
2022-11-10T01:22:17.716Z,100616.81
2022-11-10T01:25:13.051Z,100618.95
2022-11-10T01:28:04.062Z,100620.46
2022-11-10T01:31:01.478Z,100623.16
2022-11-10T01:33:56.936Z,100623.67
2022-11-10T01:36:48.157Z,100626.98
2022-11-10T01:39:38.994Z,100630.61
2022-11-10T01:42:52.607Z,100628.25
2022-11-10T01:45:52.298Z,100629.19
2022-11-10T01:48:49.586Z,100606.61
2022-11-10T01:51:50.776Z,100632.37
2022-11-10T01:54:47.209Z,100640.25
2022-11-10T01:57:39.809Z,100640.95
2022-11-10T02:00:31.280Z,100616.61
2022-11-10T02:03:31.870Z,100624.84
2022-11-10T02:06:28.568Z,100642.92
2022-11-10T02:09:20.862Z,100636.73
2022-11-10T02:12:12.352Z,100640.69
2022-11-10T02:15:12.692Z,100642.77
2022-11-10T02:18:03.414Z,100647.27
2022-11-10T02:20:54.191Z,100650.86
2022-11-10T02:23:55.310Z,100645.13
2022-11-10T02:26:52.156Z,100649.50
2022-11-10T02:29:45.178Z,100649.63
2022-11-10T02:32:36.429Z,100651.15
2022-11-10T02:35:27.390Z,100654.34
2022-11-10T02:38:19.172Z,100657.78
2022-11-10T02:41:10.860Z,100659.86
2022-11-10T02:44:04.416Z,100665.63
2022-11-10T02:46:54.973Z,100665.82
2022-11-10T02:49:46.479Z,100666.45
2022-11-10T02:52:40.826Z,100664.47
2022-11-10T02:55:32.844Z,100667.64
2022-11-10T02:58:23.417Z,100684.40
2022-11-10T03:01:15.683Z,100682.40
2022-11-10T03:04:10.907Z,100670.46
2022-11-10T03:07:02.336Z,100689.76
2022-11-10T03:09:54.855Z,100690.89
2022-11-10T03:12:45.484Z,100695.64
2022-11-10T03:15:36.697Z,100696.48
2022-11-10T03:18:27.464Z,100678.73
2022-11-10T03:21:19.209Z,100696.47
2022-11-10T03:24:10.551Z,100693.09
2022-11-10T03:27:02.592Z,100702.30
2022-11-10T03:29:53.844Z,100704.83
2022-11-10T03:32:48.227Z,100700.70
2022-11-10T03:35:38.893Z,100701.66
2022-11-10T03:38:30.696Z,100714.71
2022-11-10T03:41:21.390Z,100719.54
2022-11-10T03:44:12.439Z,100721.34
2022-11-10T03:47:04.148Z,100717.27
2022-11-10T03:49:55.341Z,100720.49
2022-11-10T03:52:49.062Z,100731.23
2022-11-10T03:55:39.924Z,100731.73
2022-11-10T03:58:30.907Z,100735.96
2022-11-10T04:01:24.207Z,100742.45
2022-11-10T04:04:29.862Z,100740.41
2022-11-10T04:07:44.620Z,100746.98
2022-11-10T04:10:37.998Z,100745.70
2022-11-10T04:13:46.855Z,100731.36
2022-11-10T04:16:38.181Z,100751.16
2022-11-10T04:19:29.971Z,100757.48
2022-11-10T04:22:41.801Z,100758.66
2022-11-10T04:25:54.138Z,100758.44
2022-11-10T04:28:50.717Z,100762.13
2022-11-10T04:31:45.232Z,100766.83
2022-11-10T04:34:38.077Z,100769.33
2022-11-10T04:37:29.125Z,100770.80
2022-11-10T04:40:20.406Z,100779.25
2022-11-10T04:43:12.166Z,100781.73
2022-11-10T04:46:04.764Z,100789.23
2022-11-10T04:48:57.334Z,100788.65
2022-11-10T04:51:48.382Z,100788.38
2022-11-10T04:54:39.672Z,100780.13
2022-11-10T04:57:31.044Z,100792.29
2022-11-10T05:00:24.330Z,100797.34
2022-11-10T05:03:16.013Z,100787.48
2022-11-10T05:06:08.023Z,100804.44
2022-11-10T05:08:58.950Z,100800.73
2022-11-10T05:11:50.189Z,100806.68
2022-11-10T05:14:45.275Z,100810.37
2022-11-10T05:17:39.059Z,100809.89
2022-11-10T05:20:31.993Z,100802.83
2022-11-10T05:23:39.375Z,100826.83
2022-11-10T05:26:32.011Z,100824.64
2022-11-10T05:29:22.798Z,100829.79
2022-11-10T05:32:17.068Z,100825.61
2022-11-10T05:35:14.059Z,100832.48
2022-11-10T05:38:08.875Z,100840.36
2022-11-10T05:41:00.540Z,100841.67
2022-11-10T05:43:55.632Z,100842.60
2022-11-10T05:46:49.852Z,100848.64
2022-11-10T05:49:42.067Z,100860.72
2022-11-10T05:52:33.258Z,100863.94
2022-11-10T05:55:29.004Z,100862.86
2022-11-10T06:08:45.498Z,100889.85
2022-11-10T06:11:37.178Z,100891.88
2022-11-10T06:14:29.829Z,100901.77
2022-11-10T06:17:22.091Z,100903.98
2022-11-10T06:20:21.814Z,100904.86
2022-11-10T06:23:17.448Z,100907.41
2022-11-10T06:26:10.509Z,100910.44
2022-11-10T06:29:01.837Z,100917.96
2022-11-10T06:31:53.546Z,100924.73
2022-11-10T06:34:47.054Z,100934.45
2022-11-10T06:37:40.216Z,100930.96
2022-11-10T06:40:33.739Z,100912.09
2022-11-10T06:43:25.199Z,100917.52
2022-11-10T06:46:18.270Z,100941.63
2022-11-10T06:49:11.139Z,100946.84
2022-11-10T06:52:03.045Z,100959.32
2022-11-10T06:54:53.918Z,100971.20
2022-11-10T06:57:48.934Z,100975.84
2022-11-10T07:00:40.440Z,100981.04
2022-11-10T07:03:31.525Z,100987.77
2022-11-10T07:06:23.241Z,100994.15
2022-11-10T07:09:14.514Z,100991.05
2022-11-10T07:12:06.420Z,100993.44
2022-11-10T07:14:57.483Z,100999.73
2022-11-10T07:17:48.632Z,101010.98
2022-11-10T07:20:39.845Z,101016.09
2022-11-10T07:23:30.760Z,101025.05
2022-11-10T07:26:22.671Z,101025.94
2022-11-10T07:29:13.472Z,101033.67
2022-11-10T07:47:35.060Z,101047.90
2022-11-10T07:50:27.500Z,101070.73
2022-11-10T07:53:21.232Z,101075.88
2022-11-10T07:56:14.445Z,101076.54
2022-11-10T07:59:05.168Z,101079.55
2022-11-10T08:01:56.529Z,101079.80
2022-11-10T08:04:47.363Z,101090.33
2022-11-10T08:07:38.774Z,101092.60
2022-11-10T08:10:30.862Z,101101.08
2022-11-10T08:13:23.056Z,101101.86
2022-11-10T08:16:14.348Z,101109.06
2022-11-10T08:19:05.933Z,101115.97
2022-11-10T08:21:56.777Z,101121.01
2022-11-10T08:24:48.317Z,101120.85
2022-11-10T08:27:39.660Z,101129.22
2022-11-10T08:30:31.370Z,101133.48
2022-11-10T08:33:24.168Z,101139.79
2022-11-10T08:36:15.419Z,101142.56
2022-11-10T08:39:06.697Z,101144.59
2022-11-10T08:41:58.016Z,101150.27
2022-11-10T08:44:49.168Z,101153.81
2022-11-10T08:47:39.856Z,101153.30
2022-11-10T08:50:31.543Z,101155.25
2022-11-10T08:53:26.476Z,101160.84
2022-11-10T08:56:18.005Z,101166.39
2022-11-10T08:59:10.041Z,101172.11
2022-11-10T09:02:00.219Z,101179.42
2022-11-10T09:04:50.724Z,101183.55
2022-11-10T09:07:49.410Z,101186.67
2022-11-10T09:10:40.896Z,101193.05
2022-11-10T09:13:31.142Z,101199.28
2022-11-10T09:16:22.152Z,101208.02
2022-11-10T09:19:18.460Z,101216.39
2022-11-10T09:22:14.343Z,101216.48
2022-11-10T09:25:04.029Z,101227.85
2022-11-10T09:27:53.335Z,101230.80
2022-11-10T09:30:42.716Z,101229.30
2022-11-10T09:33:32.102Z,101231.56
2022-11-10T09:36:21.512Z,101236.44
2022-11-10T09:39:11.171Z,101242.48
2022-11-10T09:42:00.904Z,101249.77
2022-11-10T09:45:00.167Z,101257.13
2022-11-10T09:47:58.263Z,101251.20
2022-11-10T09:50:50.346Z,101267.17
2022-11-10T09:53:42.776Z,101260.55
2022-11-10T09:56:35.287Z,101256.80
2022-11-10T09:59:29.934Z,101255.98
2022-11-10T10:02:24.804Z,101254.52
2022-11-10T10:05:37.759Z,101252.83
2022-11-10T10:08:33.800Z,101260.09
2022-11-10T10:11:30.306Z,101245.84
2022-11-10T10:14:26.063Z,101269.12
2022-11-10T10:17:26.193Z,101277.77
2022-11-10T10:20:21.073Z,101278.10
2022-11-10T10:23:15.798Z,101281.05
2022-11-10T10:26:07.051Z,101285.48
2022-11-10T10:28:58.199Z,101291.06
2022-11-10T10:31:49.987Z,101294.81
2022-11-10T10:34:40.430Z,101297.56
2022-11-10T10:37:36.843Z,101296.75
2022-11-10T10:40:26.754Z,101295.69
2022-11-10T10:43:17.552Z,101300.29
2022-11-10T10:46:09.073Z,101297.08
2022-11-10T10:49:27.867Z,101302.23
2022-11-10T10:52:24.997Z,101303.88
2022-11-10T10:55:15.152Z,101298.21
2022-11-10T10:58:06.625Z,101294.33
2022-11-10T11:00:59.289Z,101296.86
2022-11-10T11:03:50.235Z,101296.62
2022-11-10T11:06:39.466Z,101297.70
2022-11-10T11:09:30.289Z,101295.27
2022-11-10T11:12:32.845Z,101282.55
2022-11-10T11:15:28.835Z,101297.84
2022-11-10T11:18:22.854Z,101296.03
2022-11-10T11:21:25.113Z,101294.52
2022-11-10T11:24:23.196Z,101296.87
2022-11-10T11:27:19.540Z,101300.05
2022-11-10T11:30:15.256Z,101311.89
2022-11-10T11:33:19.255Z,101298.31
2022-11-10T11:36:16.758Z,101319.36
2022-11-10T11:39:16.345Z,101319.82
2022-11-10T11:42:12.085Z,101317.43
2022-11-10T11:45:08.588Z,101320.01
2022-11-10T11:48:06.615Z,101321.05
2022-11-10T11:50:59.245Z,101324.37
2022-11-10T11:53:54.852Z,101322.48
2022-11-10T11:56:46.055Z,101328.89
2022-11-10T11:59:44.395Z,101328.89
2022-11-10T12:02:52.983Z,101334.09
2022-11-10T12:05:54.052Z,101346.23
2022-11-10T12:08:48.310Z,101349.46
2022-11-10T12:11:43.857Z,101353.44
2022-11-10T12:14:40.240Z,101348.03
2022-11-10T12:17:36.103Z,101346.12
2022-11-10T12:20:31.556Z,101346.02
2022-11-10T12:23:27.189Z,101346.27
2022-11-10T12:26:23.278Z,101343.86
2022-11-10T12:29:19.261Z,101342.27
2022-11-10T12:32:14.831Z,101345.41
2022-11-10T12:35:11.619Z,101347.63
2022-11-10T12:38:05.790Z,101361.56
2022-11-10T12:41:01.399Z,101355.05
2022-11-10T12:43:59.366Z,101372.08
2022-11-10T12:46:52.208Z,101377.25
2022-11-10T12:49:51.811Z,101380.27
2022-11-10T12:52:44.508Z,101389.44
2022-11-10T12:55:37.516Z,101383.05
2022-11-10T12:58:27.776Z,101373.41
2022-11-10T13:01:19.760Z,101381.91
2022-11-10T13:04:09.802Z,101390.76
2022-11-10T13:07:00.475Z,101398.17
2022-11-10T13:09:51.529Z,101395.83
2022-11-10T13:12:58.895Z,101400.51
2022-11-10T13:15:51.323Z,101402.73
2022-11-10T13:19:01.021Z,101402.57
2022-11-10T13:22:09.731Z,101409.19
2022-11-10T13:25:12.829Z,101404.96
2022-11-10T13:28:02.558Z,101411.58
2022-11-10T13:30:53.583Z,101412.17
2022-11-10T13:34:03.362Z,101415.67
2022-11-10T13:36:53.058Z,101423.36
2022-11-10T13:39:42.322Z,101419.97
2022-11-10T13:42:32.045Z,101418.70
2022-11-10T13:45:31.686Z,101418.40
2022-11-10T13:48:27.503Z,101428.67
2022-11-10T13:51:28.083Z,101433.61
2022-11-10T13:54:34.633Z,101433.52
2022-11-10T13:57:27.313Z,101438.86
2022-11-10T14:00:31.379Z,101443.53
2022-11-10T14:03:34.112Z,101443.46
2022-11-10T14:06:25.567Z,101448.54
2022-11-10T14:09:21.600Z,101450.83
2022-11-10T14:12:26.368Z,101456.27
2022-11-10T14:15:22.101Z,101460.38
2022-11-10T14:18:19.759Z,101466.83
2022-11-10T14:21:14.028Z,101471.20
2022-11-10T14:24:09.031Z,101473.90
2022-11-10T14:27:00.875Z,101475.38
2022-11-10T14:29:50.342Z,101478.51
2022-11-10T14:32:39.684Z,101479.20
2022-11-10T14:35:30.893Z,101481.84
2022-11-10T14:38:23.840Z,101478.09
2022-11-10T14:41:20.344Z,101487.00
2022-11-10T14:44:15.498Z,101484.54
2022-11-10T14:47:25.207Z,101484.14
2022-11-10T14:50:21.395Z,101483.80
2022-11-10T14:53:15.706Z,101508.64
2022-11-10T14:56:06.670Z,101511.45
2022-11-10T14:59:00.161Z,101514.18
2022-11-10T15:01:55.447Z,101515.52
2022-11-10T15:04:46.441Z,101528.38
2022-11-10T15:07:36.887Z,101534.36
2022-11-10T15:10:28.013Z,101532.70
2022-11-10T15:13:35.321Z,101543.61
2022-11-10T15:16:27.305Z,101541.98
2022-11-10T15:19:24.207Z,101530.45
2022-11-10T15:22:19.633Z,101550.83
2022-11-10T15:25:16.351Z,101559.08
2022-11-10T15:28:07.591Z,101571.22
2022-11-10T15:30:58.042Z,101579.49
2022-11-10T15:33:48.254Z,101585.84
2022-11-10T15:36:39.798Z,101589.51
2022-11-10T15:39:30.376Z,101590.27
2022-11-10T15:42:23.064Z,101595.46
2022-11-10T15:45:12.592Z,101603.02
2022-11-10T15:48:02.803Z,101610.45
2022-11-10T15:50:54.119Z,101617.35
2022-11-10T15:53:45.005Z,101622.45
2022-11-10T15:56:34.114Z,101622.14
2022-11-10T15:59:23.737Z,101617.24
2022-11-10T16:02:23.834Z,101620.06
2022-11-10T16:05:14.778Z,101625.89
2022-11-10T16:08:05.460Z,101628.35
2022-11-10T16:10:57.456Z,101626.80
2022-11-10T16:13:47.491Z,101627.86
2022-11-10T16:16:37.142Z,101632.30
2022-11-10T16:19:27.922Z,101640.39
2022-11-10T16:22:18.213Z,101649.17
2022-11-10T16:25:18.877Z,101649.99
2022-11-10T16:28:20.403Z,101652.89
2022-11-10T16:31:12.347Z,101657.83
2022-11-10T16:34:01.863Z,101660.17
2022-11-10T16:36:51.496Z,101661.73
2022-11-10T16:39:41.347Z,101655.34
2022-11-10T16:42:31.889Z,101656.03
2022-11-10T16:45:23.391Z,101657.64
2022-11-10T16:48:24.500Z,101660.88
2022-11-10T16:51:18.138Z,101657.39
2022-11-10T16:54:12.136Z,101662.80
2022-11-10T16:57:02.813Z,101666.30
2022-11-10T16:59:52.609Z,101672.45
2022-11-10T17:02:46.245Z,101675.29
2022-11-10T17:05:42.354Z,101670.77
2022-11-10T17:08:33.306Z,101674.47
2022-11-10T17:11:24.760Z,101660.70
2022-11-10T17:14:16.779Z,101682.49
2022-11-10T17:17:06.768Z,101682.25
2022-11-10T17:19:57.718Z,101680.62
2022-11-10T17:22:51.457Z,101683.90
2022-11-10T17:25:42.889Z,101673.74
2022-11-10T17:28:35.254Z,101691.27
2022-11-10T17:31:25.861Z,101693.17
2022-11-10T17:34:16.377Z,101693.59
2022-11-10T17:37:07.228Z,101697.93
2022-11-10T17:39:58.076Z,101697.60
2022-11-10T17:42:47.924Z,101694.91
2022-11-10T17:45:40.836Z,101700.98
2022-11-10T17:48:30.488Z,101707.70
2022-11-10T17:51:22.487Z,101694.30
2022-11-10T17:55:06.963Z,101716.00
2022-11-10T17:57:58.247Z,101704.44
2022-11-10T18:00:48.502Z,101722.86
2022-11-10T18:03:39.055Z,101731.21
2022-11-10T18:06:28.718Z,101709.50
2022-11-10T18:09:18.323Z,101735.09
2022-11-10T18:12:08.396Z,101735.80
2022-11-10T18:14:58.256Z,101738.36
2022-11-10T18:18:58.690Z,101724.23
2022-11-10T18:26:03.932Z,101748.38
2022-11-10T18:28:57.652Z,101748.95
2022-11-10T18:31:50.051Z,101755.67
2022-11-10T18:35:04.908Z,101760.81
2022-11-10T18:37:56.182Z,101765.52
2022-11-10T18:40:48.900Z,101762.62
2022-11-10T18:43:39.873Z,101730.09
2022-11-10T18:46:32.696Z,101745.39
2022-11-10T18:49:24.018Z,101748.64
2022-11-10T18:52:16.252Z,101747.65
2022-11-10T18:55:09.420Z,101742.66
2022-11-10T18:58:00.184Z,101743.42
2022-11-10T19:00:52.280Z,101748.09
2022-11-10T19:03:44.203Z,101737.73
2022-11-10T19:06:35.891Z,101748.39
2022-11-10T19:09:27.155Z,101749.65
2022-11-10T19:12:21.455Z,101755.73
2022-11-10T19:15:19.581Z,101756.98
2022-11-10T19:18:10.820Z,101748.23
2022-11-10T19:21:07.525Z,101747.45
2022-11-10T19:23:58.999Z,101743.14
2022-11-10T19:26:53.272Z,101752.34
2022-11-10T19:29:47.004Z,101758.44
2022-11-10T19:32:39.311Z,101761.04
2022-11-10T19:35:32.472Z,101763.39
2022-11-10T19:38:25.285Z,101763.87
2022-11-10T19:41:23.094Z,101766.73
2022-11-10T19:44:16.619Z,101765.77
2022-11-10T19:47:08.203Z,101771.40
2022-11-10T19:50:03.227Z,101780.32
2022-11-10T19:53:18.631Z,101780.23
2022-11-10T19:56:15.130Z,101777.20
2022-11-10T19:59:08.679Z,101778.98
2022-11-10T20:02:00.942Z,101789.73
2022-11-10T20:05:08.887Z,101798.26
2022-11-10T20:08:13.162Z,101805.86
2022-11-10T20:11:05.859Z,101809.48
2022-11-10T20:13:59.564Z,101805.11
2022-11-10T20:16:53.614Z,101800.45
2022-11-10T20:19:46.882Z,101798.00
2022-11-10T20:22:39.040Z,101804.71
2022-11-10T20:25:29.763Z,101809.83
2022-11-10T20:28:21.379Z,101811.36
2022-11-10T20:31:12.325Z,101789.83
2022-11-10T20:34:02.180Z,101808.91
2022-11-10T20:36:52.596Z,101801.10
2022-11-10T20:39:43.743Z,101775.57
2022-11-10T20:42:37.794Z,101789.05
2022-11-10T20:45:32.138Z,101790.30
2022-11-10T20:48:22.398Z,101796.06
2022-11-10T20:51:19.588Z,101798.53
2022-11-10T20:54:12.570Z,101800.50
2022-11-10T20:57:07.285Z,101801.98
2022-11-10T21:00:04.376Z,101789.93
2022-11-10T21:02:55.814Z,101804.10
2022-11-10T21:05:45.564Z,101803.46
2022-11-10T21:09:00.055Z,101806.93
2022-11-10T21:12:08.209Z,101805.23
2022-11-10T21:14:58.536Z,101809.06
2022-11-10T21:17:48.582Z,101806.39
2022-11-10T21:20:37.779Z,101806.86
2022-11-10T21:23:28.513Z,101811.80
2022-11-10T21:26:20.447Z,101820.70
2022-11-10T21:29:13.011Z,101822.79
2022-11-10T21:32:03.214Z,101794.48
2022-11-10T21:34:52.867Z,101819.90
2022-11-10T21:37:46.755Z,101789.83
2022-11-10T21:40:37.963Z,101822.84
2022-11-10T21:43:28.792Z,101827.94
2022-11-10T21:46:19.615Z,101837.55
2022-11-10T21:49:09.479Z,101841.65
2022-11-10T21:51:59.947Z,101840.65
2022-11-10T21:54:50.031Z,101841.02
2022-11-10T21:57:41.452Z,101838.00
2022-11-10T22:00:33.300Z,101847.11
2022-11-10T22:03:23.331Z,101855.32
2022-11-10T22:06:19.694Z,101857.25
2022-11-10T22:09:09.946Z,101843.32
2022-11-10T22:12:20.553Z,101856.84
2022-11-10T22:15:40.609Z,101864.02
2022-11-10T22:18:41.354Z,101877.93
2022-11-10T22:21:32.321Z,101875.31
2022-11-10T22:24:24.373Z,101880.48
2022-11-10T22:27:19.676Z,101883.80
2022-11-10T22:30:16.708Z,101879.98
2022-11-10T22:33:34.794Z,101876.08
2022-11-10T22:37:03.825Z,101883.92
2022-11-10T22:40:12.070Z,101889.52
2022-11-10T22:43:21.191Z,101894.42
2022-11-10T22:46:11.594Z,101895.27
2022-11-10T22:49:25.485Z,101900.00
2022-11-10T22:52:18.083Z,101900.66
2022-11-10T22:55:12.590Z,101896.92
2022-11-10T22:58:03.190Z,101897.34
2022-11-10T23:00:56.852Z,101896.21
2022-11-10T23:03:50.874Z,101894.64
2022-11-10T23:07:29.860Z,101877.16
2022-11-10T23:10:23.163Z,101893.89
2022-11-10T23:13:15.263Z,101895.40
2022-11-10T23:16:07.345Z,101897.16
2022-11-10T23:18:58.122Z,101899.05
2022-11-10T23:22:11.871Z,101894.48
2022-11-10T23:25:26.185Z,101891.06
2022-11-10T23:28:16.912Z,101890.30
2022-11-10T23:31:08.850Z,101890.05
2022-11-10T23:33:58.114Z,101888.08
2022-11-10T23:36:47.008Z,101888.45
2022-11-10T23:39:36.674Z,101874.33
2022-11-10T23:42:27.756Z,101887.63
2022-11-10T23:45:18.575Z,101860.76
2022-11-10T23:48:08.320Z,101888.92
2022-11-10T23:50:58.831Z,101890.33
2022-11-10T23:53:48.048Z,101891.09
2022-11-10T23:56:37.124Z,101892.91
2022-11-10T23:59:26.524Z,101893.71
